Nearby METAR Reports

 

KCPC - Whiteville, North Carolina, USA
Distance from station: NNE 17mi, 28km
Updated: 04/19/2024 2:50pm
Clear
Clear
 Wind from S
Wind: S 6 mph , 9 km/h
Temperature: 82°F , 28°C
Heat Index: 84°F , 29°C
Dew Point: 66°F , 19°C
Humidity: 58%
Barometer: 29.98 inHg , 1015.2 hPa
Clouds: Clear
Visibility: 7 miles , 11 km
2024/04/19 18:50 KCPC 191850Z AUTO 17005KT 7SM CLR 28/19 A2998 RMK AO2 T02750187
KCRE - North Myrtle Bea, South Carolina, USA
Distance from station: SSE 19mi, 31km
Updated: 04/19/2024 2:53pm
Overcast
Overcast
 Wind from ESE
Wind: ESE 9 mph , 15 km/h
Temperature: 70°F , 21°C
Dew Point: 63°F , 17°C
Humidity: 78%
Barometer: 29.98 inHg , 1015.2 hPa
Clouds: Overcast
Visibility: 8 miles , 13 km
Cloud details: Overcast 600 ft
2024/04/19 18:53 KCRE 191853Z 12008KT 8SM OVC006 21/17 A2998 RMK AO1 LTG DSNT N SLP154 T02060172
 
KHYW - Conway-Horry Cty, South Carolina, USA
Distance from station: SW 22mi, 35km
Updated: 04/19/2024 2:35pm
Rain, Clear
Rain, Clear
 Wind from SSE
Wind: SSE 8 mph , 13 km/h
Temperature: 73°F , 23°C
Dew Point: 66°F , 19°C
Humidity: 78%
Barometer: 29.99 inHg , 1015.6 hPa
Summary: Rain
Clouds: Clear
Visibility: 10 miles , 16 km
2024/04/19 18:35 KHYW 191835Z AUTO 16007KT 10SM RA CLR 23/19 A2999 RMK AO2
KMAO - Marion, South Carolina, USA
Distance from station: WNW 28mi, 45km
Updated: 04/19/2024 2:55pm
Mostly cloudy
Mostly cloudy
 Wind from calm
Wind: Calm
Temperature: 75°F , 24°C
Dew Point: 64°F , 18°C
Humidity: 69%
Barometer: 29.96 inHg , 1014.6 hPa
Clouds: Mostly cloudy
Visibility: 10 miles , 16 km
Cloud details: Mostly cloudy 4800 ft
Mostly cloudy 5000 ft
Mostly cloudy 6500 ft
2024/04/19 18:55 KMAO 191855Z AUTO 00000KT 10SM BKN048 BKN050 BKN065 24/18 A2996 RMK AO2 LTG DSNT N THRU E
 
KMYR - Myrtle Beach, South Carolina, USA
Distance from station: S 28mi, 45km
Updated: 04/19/2024 2:56pm
Overcast
Overcast
 Wind from SE
Wind: SE 10 mph , 17 km/h
Temperature: 68°F , 20°C
Dew Point: 68°F , 20°C
Humidity: 100%
Barometer: 29.99 inHg , 1015.6 hPa
Clouds: Overcast
Visibility: 10 miles , 16 km
Cloud details: Overcast 600 ft
2024/04/19 18:56 KMYR 191856Z 13009KT 10SM OVC006 20/20 A2999 RMK AO2 SLP156 T02000200
KLBT - Lumberton, North Carolina, USA
Distance from station: NNW 39mi, 62km
Updated: 04/19/2024 2:47pm
Thunderstorm, Partly cloudy
Thunderstorm, Partly cloudy
 Wind from E
Wind: E 7 mph , 11 km/h
Temperature: 79°F , 26°C
Dew Point: 66°F , 19°C
Humidity: 65%
Barometer: 29.95 inHg , 1014.2 hPa
Summary: Thunderstorm
Clouds: Partly cloudy
Visibility: 10 miles , 16 km
Cloud details: Partly cloudy 11000 ft
2024/04/19 18:47 KLBT 191847Z AUTO 08006KT 10SM TS SCT110 26/19 A2995 RMK AO2 LTG DSNT ALQDS TSB47 T02560194
 
KSUT - Southport, North Carolina, USA
Distance from station: E 46mi, 74km
Updated: 04/19/2024 2:50pm
Clear
Clear
 Wind from ESE
Wind: ESE 8 mph , 13 km/h
Temperature: 81°F , 27°C
Heat Index: 83°F , 28°C
Dew Point: 64°F , 18°C
Humidity: 58%
Barometer: 30.00 inHg , 1015.9 hPa
Clouds: Clear
Visibility: 10 miles , 16 km
2024/04/19 18:50 KSUT 191850Z AUTO 11007KT 10SM CLR 27/18 A3000 RMK AO2 T02670177
KFLO - Florence, South Carolina, USA
Distance from station: W 50mi, 81km
Updated: 04/19/2024 2:53pm
Clear
Clear
 Wind from W
Wind: W 13 mph , 20 km/h, Gust: 18 mph , 30 km/h
Temperature: 88°F , 31°C
Heat Index: 89°F , 32°C
Dew Point: 63°F , 17°C
Humidity: 43%
Barometer: 29.94 inHg , 1013.9 hPa
Clouds: Clear
Visibility: 10 miles , 16 km
2024/04/19 18:53 KFLO 191853Z 26011G16KT 10SM CLR 31/17 A2994 RMK AO2 WSHFT 1748 SLP136 T03060167